Date,TemperatureHighF,TemperatureAvgF,TemperatureLowF,DewpointHighF,DewpointAvgF,DewpointLowF,HumidityHigh,HumidityAvg,HumidityLow,PressureMaxIn,PressureMinIn,WindSpeedMaxMPH,WindSpeedAvgMPH,GustSpeedMaxMPH,PrecipitationSumIn
2013-3-1,40.5,37.7,33.5,29.4,27.1,22.9,69,65,57,29.65,29.48,8,1,8,0.00
2013-3-2,36.4,31.9,29.9,22.9,20.6,17.5,69,63,54,29.64,29.57,7,2,7,0.00
2013-3-3,42.1,33.0,28.6,20.7,18.8,16.3,66,56,40,29.68,29.56,12,3,12,0.00
2013-3-4,42.3,34.1,26.5,20.0,16.6,13.1,61,49,38,29.78,29.67,10,3,10,0.00
2013-3-5,50.0,39.4,28.8,24.1,19.9,14.9,58,46,32,29.80,29.56,6,1,6,0.00
2013-3-6,40.3,37.2,33.5,33.1,30.9,28.5,89,78,67,29.78,29.45,8,1,8,0.43
2013-3-7,47.2,40.6,37.3,30.0,28.1,25.9,70,61,49,29.92,29.77,9,2,9,0.00
2013-3-8,49.7,40.9,35.6,30.3,27.2,25.2,68,58,46,30.05,29.91,13,3,13,0.00
2013-3-9,62.6,43.2,30.2,29.3,25.5,21.2,70,52,25,30.11,29.98,5,1,5,0.00
2013-3-10,66.6,48.2,25.2,33.8,28.1,18.5,79,50,28,30.03,29.90,9,1,9,0.00
2013-3-11,55.6,45.2,34.6,47.3,35.7,25.0,76,69,60,29.92,29.62,4,0,5,0.00
2013-3-12,56.9,47.0,41.0,50.6,37.0,28.0,84,68,59,29.71,29.49,9,2,10,0.47
2013-3-13,40.7,34.2,30.6,25.6,22.5,19.3,74,63,49,29.78,29.66,10,2,11,0.02
2013-3-14,40.9,34.4,30.2,18.6,16.5,14.7,54,48,38,29.88,29.79,13,3,14,0.00
2013-3-15,56.5,47.2,33.8,33.6,28.6,18.7,56,49,41,29.78,29.52,8,2,9,0.00
2013-3-16,50.0,42.2,36.0,38.2,33.9,30.4,84,73,50,29.66,29.40,4,1,5,0.00
2013-3-17,39.4,36.8,33.5,31.6,27.4,23.9,84,69,55,29.98,29.66,6,1,7,0.00
2013-3-18,35.8,33.1,31.1,30.3,27.8,24.7,89,81,64,30.02,29.61,5,1,5,0.03
2013-3-19,54.7,38.6,32.8,36.3,28.1,12.7,90,71,28,29.67,29.48,12,2,14,0.29
2013-3-20,52.7,41.1,33.7,26.5,17.0,12.8,67,39,23,29.71,29.50,13,4,15,0.00
2013-3-21,35.8,31.1,27.2,24.5,14.1,7.9,64,50,35,29.62,29.52,15,3,17,0.00
2013-3-22,41.8,31.5,27.2,19.3,16.1,11.2,60,53,40,29.74,29.60,13,4,15,0.00
2013-3-23,55.3,41.9,23.8,26.6,21.9,14.7,72,47,29,29.75,29.64,11,2,13,0.00
2013-3-24,50.9,34.6,26.6,28.4,24.6,18.8,80,67,49,29.73,29.43,5,1,6,0.00
2013-3-25,34.6,33.5,32.6,30.4,29.3,28.0,86,85,83,29.47,29.29,0,0,0,0.62
2013-3-26,45.7,38.1,32.2,31.1,28.8,26.6,87,71,49,29.77,29.46,9,2,10,0.19
2013-3-27,47.5,41.1,34.6,31.2,27.5,24.5,71,59,42,29.89,29.76,13,3,16,0.00
2013-3-28,47.5,41.3,37.6,32.4,29.1,26.6,68,62,53,29.99,29.83,12,3,13,0.00
2013-3-29,55.8,44.8,32.8,33.3,28.8,23.4,77,55,34,30.00,29.89,10,1,12,0.00
2013-3-30,34.4,33.4,32.9,23.6,23.3,22.9,68,66,64,29.94,29.93,2,0,3,0.00
2013-3-31,50.0,48.5,47.2,45.8,44.3,42.9,88,85,83,29.54,29.50,6,1,7,0.01